sensor_id;sensor_type;location;lat;lon;timestamp;pressure;altitude;pressure_sealevel;temperature;humidity
21658;BME280;10990;48.174;9.782;2024-02-26T00:02:23;93224.09;;;3.93;100.00
21658;BME280;10990;48.174;9.782;2024-02-26T00:04:49;93225.25;;;3.90;100.00
21658;BME280;10990;48.174;9.782;2024-02-26T00:07:15;93221.97;;;3.88;100.00
21658;BME280;10990;48.174;9.782;2024-02-26T00:09:41;93223.69;;;3.73;100.00
21658;BME280;10990;48.174;9.782;2024-02-26T00:12:08;93220.72;;;3.76;100.00
21658;BME280;10990;48.174;9.782;2024-02-26T00:14:34;93211.59;;;3.72;100.00
21658;BME280;10990;48.174;9.782;2024-02-26T00:17:03;93194.47;;;3.69;100.00
21658;BME280;10990;48.174;9.782;2024-02-26T00:19:29;93186.78;;;3.59;100.00
21658;BME280;10990;48.174;9.782;2024-02-26T00:21:55;93185.19;;;3.58;100.00
21658;BME280;10990;48.174;9.782;2024-02-26T00:24:21;93177.00;;;3.62;100.00
21658;BME280;10990;48.174;9.782;2024-02-26T00:26:47;93174.50;;;3.68;100.00
21658;BME280;10990;48.174;9.782;2024-02-26T00:29:13;93168.50;;;3.59;100.00
21658;BME280;10990;48.174;9.782;2024-02-26T00:31:39;93121.47;;;3.59;100.00
21658;BME280;10990;48.174;9.782;2024-02-26T00:34:07;93117.72;;;3.54;100.00
21658;BME280;10990;48.174;9.782;2024-02-26T00:36:33;93119.41;;;3.47;100.00
21658;BME280;10990;48.174;9.782;2024-02-26T00:38:59;93101.63;;;3.42;100.00
21658;BME280;10990;48.174;9.782;2024-02-26T00:41:25;93087.72;;;3.50;100.00
21658;BME280;10990;48.174;9.782;2024-02-26T00:43:51;93071.41;;;3.40;100.00
21658;BME280;10990;48.174;9.782;2024-02-26T00:46:18;93062.72;;;3.16;100.00
21658;BME280;10990;48.174;9.782;2024-02-26T00:48:44;93047.22;;;3.06;100.00
21658;BME280;10990;48.174;9.782;2024-02-26T00:51:12;93023.50;;;3.24;100.00
21658;BME280;10990;48.174;9.782;2024-02-26T00:53:38;93004.06;;;3.27;100.00
21658;BME280;10990;48.174;9.782;2024-02-26T00:56:05;92995.44;;;3.18;100.00
21658;BME280;10990;48.174;9.782;2024-02-26T00:58:31;92983.63;;;3.30;100.00
21658;BME280;10990;48.174;9.782;2024-02-26T01:00:57;92965.31;;;3.39;100.00
21658;BME280;10990;48.174;9.782;2024-02-26T01:03:23;92946.06;;;3.31;100.00
21658;BME280;10990;48.174;9.782;2024-02-26T01:05:49;92941.63;;;3.40;100.00
21658;BME280;10990;48.174;9.782;2024-02-26T01:08:18;92925.81;;;3.33;100.00
21658;BME280;10990;48.174;9.782;2024-02-26T01:10:44;92909.09;;;3.43;100.00
21658;BME280;10990;48.174;9.782;2024-02-26T01:13:10;92899.72;;;3.33;100.00
21658;BME280;10990;48.174;9.782;2024-02-26T01:15:36;92896.81;;;3.28;100.00
21658;BME280;10990;48.174;9.782;2024-02-26T01:18:02;92881.88;;;3.37;100.00
21658;BME280;10990;48.174;9.782;2024-02-26T01:20:28;92876.72;;;3.29;100.00
21658;BME280;10990;48.174;9.782;2024-02-26T01:22:55;92869.63;;;3.37;100.00
21658;BME280;10990;48.174;9.782;2024-02-26T01:25:23;92870.72;;;3.43;100.00
21658;BME280;10990;48.174;9.782;2024-02-26T01:27:49;92856.91;;;3.34;100.00
21658;BME280;10990;48.174;9.782;2024-02-26T01:30:16;92858.91;;;3.32;100.00
21658;BME280;10990;48.174;9.782;2024-02-26T01:32:42;92856.63;;;3.29;100.00
21658;BME280;10990;48.174;9.782;2024-02-26T01:35:08;92848.63;;;3.31;100.00
21658;BME280;10990;48.174;9.782;2024-02-26T01:37:34;92840.28;;;3.35;100.00
21658;BME280;10990;48.174;9.782;2024-02-26T01:40:00;92830.38;;;3.46;100.00
21658;BME280;10990;48.174;9.782;2024-02-26T01:42:29;92833.31;;;3.28;100.00
21658;BME280;10990;48.174;9.782;2024-02-26T01:44:55;92817.53;;;3.21;100.00
21658;BME280;10990;48.174;9.782;2024-02-26T01:47:22;92829.97;;;3.19;100.00
21658;BME280;10990;48.174;9.782;2024-02-26T01:49:49;92814.84;;;3.29;100.00
21658;BME280;10990;48.174;9.782;2024-02-26T01:52:15;92811.63;;;3.27;100.00
21658;BME280;10990;48.174;9.782;2024-02-26T01:54:42;92805.16;;;3.38;100.00
21658;BME280;10990;48.174;9.782;2024-02-26T01:57:11;92807.50;;;3.33;100.00
21658;BME280;10990;48.174;9.782;2024-02-26T01:59:41;92797.19;;;3.31;100.00
21658;BME280;10990;48.174;9.782;2024-02-26T02:02:08;92797.75;;;3.27;100.00
21658;BME280;10990;48.174;9.782;2024-02-26T02:04:36;92790.72;;;3.27;100.00
21658;BME280;10990;48.174;9.782;2024-02-26T02:07:03;92782.56;;;3.45;100.00
21658;BME280;10990;48.174;9.782;2024-02-26T02:09:29;92779.38;;;3.35;100.00
21658;BME280;10990;48.174;9.782;2024-02-26T02:11:56;92780.38;;;3.34;100.00
21658;BME280;10990;48.174;9.782;2024-02-26T02:14:22;92773.19;;;3.36;100.00
21658;BME280;10990;48.174;9.782;2024-02-26T02:16:51;92778.34;;;3.44;100.00
21658;BME280;10990;48.174;9.782;2024-02-26T02:19:17;92769.59;;;3.52;100.00
21658;BME280;10990;48.174;9.782;2024-02-26T02:21:46;92766.53;;;3.48;100.00
21658;BME280;10990;48.174;9.782;2024-02-26T02:24:12;92768.75;;;3.36;100.00
21658;BME280;10990;48.174;9.782;2024-02-26T02:26:38;92754.00;;;3.44;100.00
21658;BME280;10990;48.174;9.782;2024-02-26T02:29:05;92759.03;;;3.45;100.00
21658;BME280;10990;48.174;9.782;2024-02-26T02:31:32;92750.63;;;3.35;100.00
21658;BME280;10990;48.174;9.782;2024-02-26T02:33:59;92763.81;;;3.27;100.00
21658;BME280;10990;48.174;9.782;2024-02-26T02:36:26;92756.69;;;3.35;100.00
21658;BME280;10990;48.174;9.782;2024-02-26T02:38:55;92741.91;;;3.43;100.00
21658;BME280;10990;48.174;9.782;2024-02-26T02:41:21;92748.56;;;3.30;100.00
21658;BME280;10990;48.174;9.782;2024-02-26T02:43:47;92748.66;;;3.22;100.00
21658;BME280;10990;48.174;9.782;2024-02-26T02:46:13;92747.66;;;3.23;100.00
21658;BME280;10990;48.174;9.782;2024-02-26T02:48:41;92737.50;;;3.28;100.00
21658;BME280;10990;48.174;9.782;2024-02-26T02:51:07;92734.88;;;3.28;100.00
21658;BME280;10990;48.174;9.782;2024-02-26T02:53:33;92733.06;;;3.29;100.00
21658;BME280;10990;48.174;9.782;2024-02-26T02:56:02;92738.59;;;3.34;100.00
21658;BME280;10990;48.174;9.782;2024-02-26T02:58:28;92731.97;;;3.23;100.00
21658;BME280;10990;48.174;9.782;2024-02-26T03:00:54;92733.88;;;3.29;100.00
21658;BME280;10990;48.174;9.782;2024-02-26T03:03:20;92724.00;;;3.40;100.00
21658;BME280;10990;48.174;9.782;2024-02-26T03:05:46;92721.22;;;3.41;100.00
21658;BME280;10990;48.174;9.782;2024-02-26T03:08:12;92720.81;;;3.29;100.00
21658;BME280;10990;48.174;9.782;2024-02-26T03:10:38;92712.19;;;3.29;100.00
21658;BME280;10990;48.174;9.782;2024-02-26T03:13:07;92715.69;;;3.21;100.00
21658;BME280;10990;48.174;9.782;2024-02-26T03:15:33;92715.22;;;3.18;100.00
21658;BME280;10990;48.174;9.782;2024-02-26T03:17:59;92715.78;;;3.13;100.00
21658;BME280;10990;48.174;9.782;2024-02-26T03:20:25;92704.63;;;3.19;100.00
21658;BME280;10990;48.174;9.782;2024-02-26T03:22:51;92705.00;;;3.31;100.00
21658;BME280;10990;48.174;9.782;2024-02-26T03:25:17;92707.75;;;3.29;100.00
21658;BME280;10990;48.174;9.782;2024-02-26T03:27:43;92698.41;;;3.35;100.00
21658;BME280;10990;48.174;9.782;2024-02-26T03:30:12;92707.31;;;3.26;100.00
21658;BME280;10990;48.174;9.782;2024-02-26T03:32:38;92694.00;;;3.35;100.00
21658;BME280;10990;48.174;9.782;2024-02-26T03:35:05;92696.78;;;3.34;100.00
21658;BME280;10990;48.174;9.782;2024-02-26T03:37:31;92698.88;;;3.39;100.00
21658;BME280;10990;48.174;9.782;2024-02-26T03:39:57;92689.50;;;3.44;100.00
21658;BME280;10990;48.174;9.782;2024-02-26T03:42:23;92678.16;;;3.37;100.00
21658;BME280;10990;48.174;9.782;2024-02-26T03:44:49;92694.38;;;3.32;100.00
21658;BME280;10990;48.174;9.782;2024-02-26T03:47:18;92685.09;;;3.45;100.00
21658;BME280;10990;48.174;9.782;2024-02-26T03:49:44;92685.44;;;3.56;100.00
21658;BME280;10990;48.174;9.782;2024-02-26T03:52:10;92682.47;;;3.59;100.00
21658;BME280;10990;48.174;9.782;2024-02-26T03:54:36;92687.25;;;3.41;100.00
21658;BME280;10990;48.174;9.782;2024-02-26T03:57:03;92678.94;;;3.37;100.00
21658;BME280;10990;48.174;9.782;2024-02-26T03:59:29;92668.88;;;3.34;100.00
21658;BME280;10990;48.174;9.782;2024-02-26T04:01:55;92670.44;;;3.44;100.00
21658;BME280;10990;48.174;9.782;2024-02-26T04:04:23;92675.72;;;3.50;100.00
21658;BME280;10990;48.174;9.782;2024-02-26T04:06:49;92663.00;;;3.62;100.00
21658;BME280;10990;48.174;9.782;2024-02-26T04:09:15;92659.78;;;3.75;100.00
21658;BME280;10990;48.174;9.782;2024-02-26T04:11:41;92658.16;;;3.59;100.00
21658;BME280;10990;48.174;9.782;2024-02-26T04:14:07;92666.00;;;3.44;100.00
21658;BME280;10990;48.174;9.782;2024-02-26T04:16:33;92668.34;;;3.54;100.00
21658;BME280;10990;48.174;9.782;2024-02-26T04:18:59;92666.53;;;3.54;100.00
21658;BME280;10990;48.174;9.782;2024-02-26T04:21:27;92670.75;;;3.41;100.00
21658;BME280;10990;48.174;9.782;2024-02-26T04:23:53;92672.41;;;3.42;100.00
21658;BME280;10990;48.174;9.782;2024-02-26T04:26:19;92668.13;;;3.41;100.00
21658;BME280;10990;48.174;9.782;2024-02-26T04:28:45;92669.94;;;3.40;100.00
21658;BME280;10990;48.174;9.782;2024-02-26T04:31:10;92654.72;;;3.29;100.00
21658;BME280;10990;48.174;9.782;2024-02-26T04:33:36;92661.09;;;3.11;100.00
21658;BME280;10990;48.174;9.782;2024-02-26T04:36:03;92667.50;;;3.24;100.00
21658;BME280;10990;48.174;9.782;2024-02-26T04:38:31;92678.50;;;3.49;100.00
21658;BME280;10990;48.174;9.782;2024-02-26T04:40:57;92666.53;;;3.40;100.00
21658;BME280;10990;48.174;9.782;2024-02-26T04:43:23;92645.09;;;3.14;100.00
21658;BME280;10990;48.174;9.782;2024-02-26T04:45:48;92643.63;;;3.12;100.00
21658;BME280;10990;48.174;9.782;2024-02-26T04:48:14;92656.25;;;3.23;100.00
21658;BME280;10990;48.174;9.782;2024-02-26T04:50:40;92650.59;;;3.34;100.00
21658;BME280;10990;48.174;9.782;2024-02-26T04:53:06;92624.19;;;3.29;100.00
21658;BME280;10990;48.174;9.782;2024-02-26T04:55:34;92613.75;;;3.14;100.00
21658;BME280;10990;48.174;9.782;2024-02-26T04:58:00;92608.00;;;3.04;100.00
21658;BME280;10990;48.174;9.782;2024-02-26T05:00:26;92571.47;;;3.04;100.00
21658;BME280;10990;48.174;9.782;2024-02-26T05:02:52;92583.22;;;3.00;100.00
21658;BME280;10990;48.174;9.782;2024-02-26T05:05:18;92600.91;;;3.13;100.00
21658;BME280;10990;48.174;9.782;2024-02-26T05:07:44;92601.44;;;3.38;100.00
21658;BME280;10990;48.174;9.782;2024-02-26T05:10:09;92603.22;;;3.37;100.00
21658;BME280;10990;48.174;9.782;2024-02-26T05:12:38;92596.91;;;3.47;100.00
21658;BME280;10990;48.174;9.782;2024-02-26T05:15:05;92602.94;;;3.47;100.00
21658;BME280;10990;48.174;9.782;2024-02-26T05:17:31;92605.75;;;3.31;100.00
21658;BME280;10990;48.174;9.782;2024-02-26T05:19:56;92604.75;;;3.32;100.00
21658;BME280;10990;48.174;9.782;2024-02-26T05:22:22;92595.56;;;3.36;100.00
21658;BME280;10990;48.174;9.782;2024-02-26T05:24:48;92600.34;;;3.47;100.00
21658;BME280;10990;48.174;9.782;2024-02-26T05:27:14;92619.50;;;3.54;100.00
21658;BME280;10990;48.174;9.782;2024-02-26T05:29:42;92621.84;;;3.64;100.00
21658;BME280;10990;48.174;9.782;2024-02-26T05:32:08;92625.63;;;3.62;100.00
21658;BME280;10990;48.174;9.782;2024-02-26T05:34:34;92626.78;;;3.74;100.00
21658;BME280;10990;48.174;9.782;2024-02-26T05:37:00;92639.03;;;3.73;100.00
21658;BME280;10990;48.174;9.782;2024-02-26T05:39:26;92636.63;;;3.57;100.00
21658;BME280;10990;48.174;9.782;2024-02-26T05:41:51;92644.63;;;3.70;100.00
21658;BME280;10990;48.174;9.782;2024-02-26T05:44:17;92636.47;;;3.80;100.00
21658;BME280;10990;48.174;9.782;2024-02-26T05:46:46;92642.91;;;3.63;100.00
21658;BME280;10990;48.174;9.782;2024-02-26T05:49:11;92643.66;;;3.56;100.00
21658;BME280;10990;48.174;9.782;2024-02-26T05:51:37;92645.91;;;3.45;100.00
21658;BME280;10990;48.174;9.782;2024-02-26T05:54:03;92643.31;;;3.30;100.00
21658;BME280;10990;48.174;9.782;2024-02-26T05:56:29;92627.44;;;3.17;100.00
21658;BME280;10990;48.174;9.782;2024-02-26T05:58:55;92628.63;;;3.14;100.00
21658;BME280;10990;48.174;9.782;2024-02-26T06:01:20;92636.44;;;3.14;100.00
21658;BME280;10990;48.174;9.782;2024-02-26T06:03:49;92641.41;;;3.39;100.00
21658;BME280;10990;48.174;9.782;2024-02-26T06:06:15;92654.81;;;3.50;100.00
21658;BME280;10990;48.174;9.782;2024-02-26T06:08:41;92641.56;;;3.52;100.00
21658;BME280;10990;48.174;9.782;2024-02-26T06:11:07;92648.34;;;3.61;100.00
21658;BME280;10990;48.174;9.782;2024-02-26T06:13:33;92654.63;;;3.52;100.00
21658;BME280;10990;48.174;9.782;2024-02-26T06:15:58;92670.94;;;3.39;100.00
21658;BME280;10990;48.174;9.782;2024-02-26T06:18:24;92665.81;;;3.46;100.00
21658;BME280;10990;48.174;9.782;2024-02-26T06:20:53;92674.72;;;3.36;100.00
21658;BME280;10990;48.174;9.782;2024-02-26T06:23:19;92672.69;;;3.47;100.00
21658;BME280;10990;48.174;9.782;2024-02-26T06:25:44;92682.28;;;3.46;100.00
21658;BME280;10990;48.174;9.782;2024-02-26T06:28:10;92691.75;;;3.32;100.00
21658;BME280;10990;48.174;9.782;2024-02-26T06:30:36;92675.91;;;3.34;100.00
21658;BME280;10990;48.174;9.782;2024-02-26T06:33:02;92685.44;;;3.27;100.00
21658;BME280;10990;48.174;9.782;2024-02-26T06:35:28;92689.13;;;3.18;100.00
21658;BME280;10990;48.174;9.782;2024-02-26T06:37:56;92692.88;;;3.15;100.00
21658;BME280;10990;48.174;9.782;2024-02-26T06:40:22;92696.59;;;3.21;100.00
21658;BME280;10990;48.174;9.782;2024-02-26T06:42:48;92692.44;;;3.26;100.00
21658;BME280;10990;48.174;9.782;2024-02-26T06:45:14;92705.88;;;3.23;100.00
21658;BME280;10990;48.174;9.782;2024-02-26T06:47:40;92705.53;;;3.41;100.00
21658;BME280;10990;48.174;9.782;2024-02-26T06:50:06;92707.63;;;3.61;100.00
21658;BME280;10990;48.174;9.782;2024-02-26T06:52:32;92707.06;;;3.65;100.00
21658;BME280;10990;48.174;9.782;2024-02-26T06:55:00;92711.13;;;3.53;100.00
21658;BME280;10990;48.174;9.782;2024-02-26T06:57:26;92715.34;;;3.54;100.00
21658;BME280;10990;48.174;9.782;2024-02-26T06:59:52;92720.31;;;3.49;100.00
21658;BME280;10990;48.174;9.782;2024-02-26T07:02:18;92723.63;;;3.43;100.00
21658;BME280;10990;48.174;9.782;2024-02-26T07:04:44;92727.69;;;3.45;100.00
21658;BME280;10990;48.174;9.782;2024-02-26T07:07:09;92731.75;;;3.48;100.00
21658;BME280;10990;48.174;9.782;2024-02-26T07:09:35;92732.03;;;3.53;100.00
21658;BME280;10990;48.174;9.782;2024-02-26T07:12:04;92738.16;;;3.60;100.00
21658;BME280;10990;48.174;9.782;2024-02-26T07:14:30;92752.56;;;3.41;100.00
21658;BME280;10990;48.174;9.782;2024-02-26T07:16:56;92757.97;;;3.54;100.00
21658;BME280;10990;48.174;9.782;2024-02-26T07:19:21;92751.56;;;3.57;100.00
21658;BME280;10990;48.174;9.782;2024-02-26T07:21:47;92752.13;;;3.52;100.00
21658;BME280;10990;48.174;9.782;2024-02-26T07:24:13;92738.16;;;3.60;100.00
21658;BME280;10990;48.174;9.782;2024-02-26T07:26:39;92734.72;;;3.59;100.00
21658;BME280;10990;48.174;9.782;2024-02-26T07:29:07;92727.09;;;3.73;100.00
21658;BME280;10990;48.174;9.782;2024-02-26T07:31:33;92724.56;;;3.79;100.00
21658;BME280;10990;48.174;9.782;2024-02-26T07:33:59;92730.59;;;3.80;100.00
21658;BME280;10990;48.174;9.782;2024-02-26T07:36:25;92732.84;;;3.98;100.00
21658;BME280;10990;48.174;9.782;2024-02-26T07:38:51;92732.13;;;3.89;100.00
21658;BME280;10990;48.174;9.782;2024-02-26T07:41:17;92741.31;;;3.85;100.00
21658;BME280;10990;48.174;9.782;2024-02-26T07:43:42;92761.41;;;3.85;100.00
21658;BME280;10990;48.174;9.782;2024-02-26T07:46:11;92739.66;;;4.14;100.00
21658;BME280;10990;48.174;9.782;2024-02-26T07:48:37;92742.28;;;4.14;100.00
21658;BME280;10990;48.174;9.782;2024-02-26T07:51:03;92743.72;;;4.16;100.00
21658;BME280;10990;48.174;9.782;2024-02-26T07:53:30;92745.06;;;4.27;100.00
21658;BME280;10990;48.174;9.782;2024-02-26T07:55:56;92753.47;;;4.22;100.00
21658;BME280;10990;48.174;9.782;2024-02-26T07:58:22;92746.22;;;4.39;100.00
21658;BME280;10990;48.174;9.782;2024-02-26T08:00:47;92746.84;;;4.41;100.00
21658;BME280;10990;48.174;9.782;2024-02-26T08:03:16;92756.88;;;4.38;100.00
21658;BME280;10990;48.174;9.782;2024-02-26T08:05:42;92758.25;;;4.34;100.00
21658;BME280;10990;48.174;9.782;2024-02-26T08:08:08;92762.84;;;4.53;100.00
21658;BME280;10990;48.174;9.782;2024-02-26T08:10:34;92774.41;;;4.59;100.00
21658;BME280;10990;48.174;9.782;2024-02-26T08:13:00;92782.34;;;4.65;100.00
21658;BME280;10990;48.174;9.782;2024-02-26T08:15:26;92798.16;;;4.57;100.00
21658;BME280;10990;48.174;9.782;2024-02-26T08:17:51;92793.56;;;4.59;100.00
21658;BME280;10990;48.174;9.782;2024-02-26T08:20:20;92812.81;;;4.37;100.00
21658;BME280;10990;48.174;9.782;2024-02-26T08:22:46;92809.47;;;4.43;100.00
21658;BME280;10990;48.174;9.782;2024-02-26T08:25:12;92813.34;;;4.32;100.00
21658;BME280;10990;48.174;9.782;2024-02-26T08:27:37;92815.31;;;4.45;100.00
21658;BME280;10990;48.174;9.782;2024-02-26T08:30:04;92820.63;;;4.52;100.00
21658;BME280;10990;48.174;9.782;2024-02-26T08:32:30;92824.13;;;4.59;100.00
21658;BME280;10990;48.174;9.782;2024-02-26T08:34:56;92824.50;;;4.70;100.00
21658;BME280;10990;48.174;9.782;2024-02-26T08:37:25;92811.34;;;4.85;100.00
21658;BME280;10990;48.174;9.782;2024-02-26T08:39:51;92826.25;;;4.85;100.00
21658;BME280;10990;48.174;9.782;2024-02-26T08:42:16;92827.50;;;4.89;100.00
21658;BME280;10990;48.174;9.782;2024-02-26T08:44:42;92832.81;;;4.96;100.00
21658;BME280;10990;48.174;9.782;2024-02-26T08:47:08;92841.50;;;4.81;100.00
21658;BME280;10990;48.174;9.782;2024-02-26T08:49:34;92853.53;;;4.76;100.00
21658;BME280;10990;48.174;9.782;2024-02-26T08:52:00;92843.84;;;4.91;100.00
21658;BME280;10990;48.174;9.782;2024-02-26T08:54:28;92858.53;;;4.92;100.00
21658;BME280;10990;48.174;9.782;2024-02-26T08:56:54;92852.47;;;5.06;100.00
21658;BME280;10990;48.174;9.782;2024-02-26T08:59:20;92853.03;;;5.23;100.00
21658;BME280;10990;48.174;9.782;2024-02-26T09:01:45;92864.34;;;5.45;100.00
21658;BME280;10990;48.174;9.782;2024-02-26T09:04:11;92871.81;;;5.70;100.00
21658;BME280;10990;48.174;9.782;2024-02-26T09:06:40;92880.69;;;5.69;100.00
21658;BME280;10990;48.174;9.782;2024-02-26T09:09:06;92887.47;;;5.63;100.00
21658;BME280;10990;48.174;9.782;2024-02-26T09:11:34;92905.34;;;5.53;100.00
21658;BME280;10990;48.174;9.782;2024-02-26T09:14:00;92918.88;;;5.56;100.00
21658;BME280;10990;48.174;9.782;2024-02-26T09:16:26;92939.53;;;5.45;100.00
21658;BME280;10990;48.174;9.782;2024-02-26T09:18:52;92941.94;;;5.61;100.00
21658;BME280;10990;48.174;9.782;2024-02-26T09:21:18;92892.09;;;7.02;100.00
21658;BME280;10990;48.174;9.782;2024-02-26T09:23:44;92885.19;;;8.35;100.00
21658;BME280;10990;48.174;9.782;2024-02-26T09:26:09;92951.75;;;7.76;100.00
21658;BME280;10990;48.174;9.782;2024-02-26T09:28:38;92972.69;;;8.17;100.00
21658;BME280;10990;48.174;9.782;2024-02-26T09:31:04;93068.69;;;6.97;100.00
21658;BME280;10990;48.174;9.782;2024-02-26T09:33:30;93048.91;;;7.29;100.00
21658;BME280;10990;48.174;9.782;2024-02-26T09:35:55;93046.34;;;8.04;100.00
21658;BME280;10990;48.174;9.782;2024-02-26T09:38:21;93104.00;;;7.85;100.00
21658;BME280;10990;48.174;9.782;2024-02-26T09:40:47;93148.19;;;7.34;100.00
21658;BME280;10990;48.174;9.782;2024-02-26T09:43:14;93143.72;;;7.97;100.00
21658;BME280;10990;48.174;9.782;2024-02-26T09:45:43;93165.72;;;8.99;100.00
21658;BME280;10990;48.174;9.782;2024-02-26T09:48:10;93188.31;;;10.33;100.00
21658;BME280;10990;48.174;9.782;2024-02-26T09:50:36;93317.13;;;9.64;100.00
21658;BME280;10990;48.174;9.782;2024-02-26T09:53:04;93402.50;;;8.54;100.00
21658;BME280;10990;48.174;9.782;2024-02-26T09:55:30;93430.97;;;7.94;100.00
21658;BME280;10990;48.174;9.782;2024-02-26T09:57:57;93419.13;;;8.33;100.00
21658;BME280;10990;48.174;9.782;2024-02-26T10:00:24;93452.53;;;7.83;100.00
21658;BME280;10990;48.174;9.782;2024-02-26T10:02:55;93458.41;;;7.85;100.00
21658;BME280;10990;48.174;9.782;2024-02-26T10:05:23;93458.44;;;7.70;100.00
21658;BME280;10990;48.174;9.782;2024-02-26T10:07:50;93461.03;;;7.85;100.00
21658;BME280;10990;48.174;9.782;2024-02-26T10:10:17;93450.06;;;8.46;100.00
21658;BME280;10990;48.174;9.782;2024-02-26T10:12:44;93459.88;;;8.59;100.00
21658;BME280;10990;48.174;9.782;2024-02-26T10:15:09;93461.34;;;9.31;100.00
21658;BME280;10990;48.174;9.782;2024-02-26T10:17:35;93473.25;;;10.69;100.00
21658;BME280;10990;48.174;9.782;2024-02-26T10:20:15;93557.44;;;10.59;100.00
21658;BME280;10990;48.174;9.782;2024-02-26T10:22:41;93629.97;;;9.60;100.00
21658;BME280;10990;48.174;9.782;2024-02-26T10:25:08;93669.72;;;9.31;100.00
21658;BME280;10990;48.174;9.782;2024-02-26T10:27:34;93667.41;;;9.77;100.00
21658;BME280;10990;48.174;9.782;2024-02-26T10:30:02;93716.88;;;8.97;100.00
21658;BME280;10990;48.174;9.782;2024-02-26T10:32:28;93706.88;;;8.71;100.00
21658;BME280;10990;48.174;9.782;2024-02-26T10:34:55;93700.84;;;8.56;100.00
21658;BME280;10990;48.174;9.782;2024-02-26T10:37:24;93690.31;;;8.56;100.00
21658;BME280;10990;48.174;9.782;2024-02-26T10:39:50;93663.84;;;8.86;100.00
21658;BME280;10990;48.174;9.782;2024-02-26T10:42:16;93664.19;;;8.61;100.00
21658;BME280;10990;48.174;9.782;2024-02-26T10:44:42;93668.88;;;8.44;100.00
21658;BME280;10990;48.174;9.782;2024-02-26T10:47:09;93654.34;;;8.34;100.00
21658;BME280;10990;48.174;9.782;2024-02-26T10:49:35;93648.66;;;8.15;100.00
21658;BME280;10990;48.174;9.782;2024-02-26T10:52:01;93637.28;;;8.29;100.00
21658;BME280;10990;48.174;9.782;2024-02-26T10:54:32;93656.84;;;8.05;100.00
21658;BME280;10990;48.174;9.782;2024-02-26T10:56:59;93661.38;;;7.97;100.00
21658;BME280;10990;48.174;9.782;2024-02-26T10:59:26;93640.56;;;8.31;100.00
21658;BME280;10990;48.174;9.782;2024-02-26T11:01:52;93640.16;;;8.49;100.00
21658;BME280;10990;48.174;9.782;2024-02-26T11:04:20;93629.56;;;8.86;100.00
21658;BME280;10990;48.174;9.782;2024-02-26T11:06:47;93638.78;;;8.75;100.00
21658;BME280;10990;48.174;9.782;2024-02-26T11:09:15;93650.41;;;8.81;100.00
21658;BME280;10990;48.174;9.782;2024-02-26T11:11:44;93653.91;;;8.66;100.00
21658;BME280;10990;48.174;9.782;2024-02-26T11:14:11;93655.25;;;8.77;100.00
21658;BME280;10990;48.174;9.782;2024-02-26T11:16:39;93653.56;;;8.91;100.00
21658;BME280;10990;48.174;9.782;2024-02-26T11:19:06;93668.03;;;8.80;100.00
21658;BME280;10990;48.174;9.782;2024-02-26T11:21:34;93659.88;;;8.96;100.00
21658;BME280;10990;48.174;9.782;2024-02-26T11:24:02;93667.03;;;9.03;100.00
21658;BME280;10990;48.174;9.782;2024-02-26T11:26:28;93670.44;;;8.96;100.00
21658;BME280;10990;48.174;9.782;2024-02-26T11:28:57;93686.38;;;8.88;100.00
21658;BME280;10990;48.174;9.782;2024-02-26T11:31:24;93675.50;;;8.98;100.00
21658;BME280;10990;48.174;9.782;2024-02-26T11:33:51;93687.13;;;9.04;100.00
21658;BME280;10990;48.174;9.782;2024-02-26T11:36:17;93708.72;;;8.92;100.00
21658;BME280;10990;48.174;9.782;2024-02-26T11:38:44;93696.34;;;9.14;100.00
21658;BME280;10990;48.174;9.782;2024-02-26T11:41:10;93708.66;;;9.07;100.00
21658;BME280;10990;48.174;9.782;2024-02-26T11:43:51;93702.94;;;9.25;100.00
21658;BME280;10990;48.174;9.782;2024-02-26T11:46:30;93707.09;;;9.13;100.00
21658;BME280;10990;48.174;9.782;2024-02-26T11:48:58;93711.91;;;9.09;100.00
21658;BME280;10990;48.174;9.782;2024-02-26T11:51:26;93698.22;;;9.20;100.00
21658;BME280;10990;48.174;9.782;2024-02-26T11:53:52;93695.91;;;9.11;100.00
21658;BME280;10990;48.174;9.782;2024-02-26T11:56:24;93682.31;;;9.07;100.00
21658;BME280;10990;48.174;9.782;2024-02-26T11:59:00;93693.53;;;8.94;100.00
21658;BME280;10990;48.174;9.782;2024-02-26T12:01:39;93688.47;;;8.93;100.00
21658;BME280;10990;48.174;9.782;2024-02-26T12:04:06;93676.94;;;9.01;100.00
21658;BME280;10990;48.174;9.782;2024-02-26T12:06:40;93674.41;;;9.07;100.00
21658;BME280;10990;48.174;9.782;2024-02-26T12:09:07;93670.75;;;9.08;100.00
21658;BME280;10990;48.174;9.782;2024-02-26T12:11:33;93684.00;;;8.93;100.00
21658;BME280;10990;48.174;9.782;2024-02-26T12:14:00;93688.75;;;8.83;100.00
21658;BME280;10990;48.174;9.782;2024-02-26T12:16:35;93691.13;;;8.78;100.00
21658;BME280;10990;48.174;9.782;2024-02-26T12:19:04;93683.19;;;8.93;100.00
21658;BME280;10990;48.174;9.782;2024-02-26T12:21:30;93674.81;;;8.89;100.00
21658;BME280;10990;48.174;9.782;2024-02-26T12:23:56;93674.88;;;8.74;100.00
21658;BME280;10990;48.174;9.782;2024-02-26T12:26:32;93660.47;;;8.70;100.00
21658;BME280;10990;48.174;9.782;2024-02-26T12:28:58;93651.38;;;8.73;100.00
21658;BME280;10990;48.174;9.782;2024-02-26T12:31:24;93648.41;;;8.83;100.00
21658;BME280;10990;48.174;9.782;2024-02-26T12:33:50;93648.78;;;8.80;100.00
21658;BME280;10990;48.174;9.782;2024-02-26T12:36:18;93643.25;;;8.74;100.00
21658;BME280;10990;48.174;9.782;2024-02-26T12:38:44;93639.94;;;8.66;100.00
21658;BME280;10990;48.174;9.782;2024-02-26T12:41:10;93635.59;;;8.58;100.00
21658;BME280;10990;48.174;9.782;2024-02-26T12:43:36;93626.00;;;8.50;100.00
21658;BME280;10990;48.174;9.782;2024-02-26T12:46:03;93601.06;;;8.53;100.00
21658;BME280;10990;48.174;9.782;2024-02-26T12:48:29;93583.00;;;8.50;100.00
21658;BME280;10990;48.174;9.782;2024-02-26T12:50:55;93577.56;;;8.51;100.00
21658;BME280;10990;48.174;9.782;2024-02-26T12:53:24;93572.44;;;8.28;100.00
21658;BME280;10990;48.174;9.782;2024-02-26T12:55:50;93561.47;;;8.25;100.00
21658;BME280;10990;48.174;9.782;2024-02-26T12:58:16;93559.47;;;8.27;100.00